Arab, MO

5:29 AM CDT on July 14, 2014 (GMT -0500)
Cairo Regional (KCIR) Elev 322 ft | 37.06 °N, 89.22 °W | Change Station

Current weather conditions updated 14 minutes ago

Thunderstorm
Thunderstorm
74 °F
Feels Like 74 °F
N
0
Wind Variable Wind from North

Today is forecast to be Cooler than yesterday. Afternoon showers and thunderstorms.

Today
High -- | Low -- °F
--% Chance of Precip.
Yesterday
High -- | Low -- °F
Precip. -- in
5:51 AM 8:20 PM
Waning Gibbous, 94% visible
Pressure 29.96 in
Visibility 4.0 miles
Clouds Scattered Clouds 1300 ft
Mostly Cloudy 3400 ft
Overcast 5500 ft
Dew Point 70 °F
Humidity 85%
Rainfall 0.00 in
Snow Depth Not available.
UV 0 out of 12
Pollen 4.20 out of 12
Air Quality Not available.
Flu Activity Sporadic
METAR KCIR 141015Z AUTO 00000KT 4SM TS SCT013 BKN034 OVC055 24/21 A2996 RMK AO2 LTG DSNT ALQS T02360210

More Conditions Fewer Conditions

Pressure 29.96 in
Visibility 4.0 miles
Clouds Scattered Clouds 1300 ft
Mostly Cloudy 3400 ft
Overcast 5500 ft
Dew Point 70 °F
Humidity 85%
Rainfall 0.00 in
Snow Depth Not available.
UV 0 out of 12
Pollen 4.20 out of 12
Air Quality Not available.
Flu Activity Sporadic
METAR KCIR 141015Z AUTO 00000KT 4SM TS SCT013 BKN034 OVC055 24/21 A2996 RMK AO2 LTG DSNT ALQS T02360210

More Conditions Fewer Conditions

10-Day Weather Forecast

Almanac

Astronomy

Jul. 14, 2014 Rise Set
Actual Time 5:51 AM CDT 8:20 PM CDT
Civil Twilight 5:21 AM CDT 8:50 PM CDT
Nautical Twilight 4:44 AM CDT 9:27 PM CDT
Astronomical Twilight 4:02 AM CDT 10:09 PM CDT
Moon 9:55 PM CDT 8:29 AM CDT
Length of Visible Light 15h 29m
Length of Day
14h 29m
Tomorrow will be 1m 11s shorter.
Waning Gibbous, 94% of the Moon is Illuminated
Today
Waning Gibbous
Jul 18
Last Quarter
Jul 26
New
Aug 3
First Quarter
Aug 10
Full

Today's Extremes

State Highs State Lows

Community

WunderPhotos

Upload Photos

1,733,603 photos uploaded!

Nearby

Snow Depth

Station Depth Elevation
No new snow has been reported.

Earthquake Activity

City Distance Mag. Time & Date
No recent earthquake activity has been reported nearby.
Minimum magnitude displayed is 2.5.

Coastal Water Temperatures

Place Temperature
No Stations Reporting

Nearby Weather Stations

Station Location Temp. Heat Index Dew Point Humidity Wind Precip. Elev Updated Type
RAWS PIEDMONT MO, Cascade, MO 72 °F - 71 °F 98% North  at  0 mph 0.14 in / hr 839 ft 4:30 AM CDT MADIS
rural, Whitewater, MO 72.3 °F - 71 °F 96% North  at  8.0 mph 0.50 in / hr 410 ft 3:44 AM CDT Rapid Fire
MesoWest PERKNS , Perkins, MO 73 °F 71 °F - - North  at  - 0.00 in / hr 332 ft 4:05 AM CDT MADIS
MesoWest AVERT , Bloomfield, MO 78 °F 76 °F - - North  at  - 0.00 in / hr 309 ft 3:25 AM CDT MADIS
MesoWest DEXTER , Dexter, MO 71 °F - - - North  at  - 0.00 in / hr 362 ft 4:30 AM CDT MADIS
Dexterweather.com, Dexter, MO 71.1 °F - 71 °F 99% South  at  0.0 mph 1.31 in / hr 420 ft 5:29 AM CDT Rapid Fire

Show More Stations Show Fewer Stations